sensor_id;sensor_type;location;lat;lon;timestamp;temperature;humidity
418;DHT22;49;48.530;9.200;2023-06-10T00:01:38;22.10;31.00
418;DHT22;49;48.530;9.200;2023-06-10T00:04:05;21.90;31.50
418;DHT22;49;48.530;9.200;2023-06-10T00:06:32;21.90;31.50
418;DHT22;49;48.530;9.200;2023-06-10T00:09:02;21.80;32.00
418;DHT22;49;48.530;9.200;2023-06-10T00:11:30;21.60;32.40
418;DHT22;49;48.530;9.200;2023-06-10T00:13:57;21.70;31.80
418;DHT22;49;48.530;9.200;2023-06-10T00:16:25;21.70;31.90
418;DHT22;49;48.530;9.200;2023-06-10T00:18:52;21.70;31.80
418;DHT22;49;48.530;9.200;2023-06-10T00:21:21;21.50;32.40
418;DHT22;49;48.530;9.200;2023-06-10T00:23:50;21.40;32.70
418;DHT22;49;48.530;9.200;2023-06-10T00:26:17;21.30;33.10
418;DHT22;49;48.530;9.200;2023-06-10T00:28:44;21.40;32.80
418;DHT22;49;48.530;9.200;2023-06-10T00:31:11;21.50;32.70
418;DHT22;49;48.530;9.200;2023-06-10T00:33:40;21.40;32.80
418;DHT22;49;48.530;9.200;2023-06-10T00:36:06;21.50;33.20
418;DHT22;49;48.530;9.200;2023-06-10T00:38:33;21.50;33.20
418;DHT22;49;48.530;9.200;2023-06-10T00:41:00;21.40;33.10
418;DHT22;49;48.530;9.200;2023-06-10T00:43:27;21.40;33.10
418;DHT22;49;48.530;9.200;2023-06-10T00:45:54;21.50;32.50
418;DHT22;49;48.530;9.200;2023-06-10T00:48:21;21.50;32.10
418;DHT22;49;48.530;9.200;2023-06-10T00:50:49;21.30;32.40
418;DHT22;49;48.530;9.200;2023-06-10T00:53:17;21.40;32.30
418;DHT22;49;48.530;9.200;2023-06-10T00:55:44;21.50;33.00
418;DHT22;49;48.530;9.200;2023-06-10T00:58:11;21.40;32.90
418;DHT22;49;48.530;9.200;2023-06-10T01:00:38;21.40;33.10
418;DHT22;49;48.530;9.200;2023-06-10T01:03:05;21.20;33.80
418;DHT22;49;48.530;9.200;2023-06-10T01:05:33;21.20;34.10
418;DHT22;49;48.530;9.200;2023-06-10T01:08:09;21.20;34.10
418;DHT22;49;48.530;9.200;2023-06-10T01:10:41;21.20;34.70
418;DHT22;49;48.530;9.200;2023-06-10T01:13:10;21.00;35.20
418;DHT22;49;48.530;9.200;2023-06-10T01:15:39;20.90;35.50
418;DHT22;49;48.530;9.200;2023-06-10T01:18:08;20.90;35.20
418;DHT22;49;48.530;9.200;2023-06-10T01:20:37;20.90;35.20
418;DHT22;49;48.530;9.200;2023-06-10T01:23:07;20.90;35.00
418;DHT22;49;48.530;9.200;2023-06-10T01:25:38;21.10;34.60
418;DHT22;49;48.530;9.200;2023-06-10T01:28:13;21.10;34.90
418;DHT22;49;48.530;9.200;2023-06-10T01:30:48;20.90;35.20
418;DHT22;49;48.530;9.200;2023-06-10T01:33:19;20.70;36.30
418;DHT22;49;48.530;9.200;2023-06-10T01:35:50;20.60;37.80
418;DHT22;49;48.530;9.200;2023-06-10T01:38:19;20.60;37.80
418;DHT22;49;48.530;9.200;2023-06-10T01:40:48;20.70;37.00
418;DHT22;49;48.530;9.200;2023-06-10T01:43:16;20.80;36.50
418;DHT22;49;48.530;9.200;2023-06-10T01:45:42;20.70;37.00
418;DHT22;49;48.530;9.200;2023-06-10T01:48:09;20.70;37.00
418;DHT22;49;48.530;9.200;2023-06-10T01:50:36;20.30;39.30
418;DHT22;49;48.530;9.200;2023-06-10T01:53:04;19.90;42.60
418;DHT22;49;48.530;9.200;2023-06-10T01:55:32;19.80;42.40
418;DHT22;49;48.530;9.200;2023-06-10T01:57:59;19.70;42.80
418;DHT22;49;48.530;9.200;2023-06-10T02:00:25;19.70;43.80
418;DHT22;49;48.530;9.200;2023-06-10T02:02:52;19.80;43.40
418;DHT22;49;48.530;9.200;2023-06-10T02:05:19;20.10;41.50
418;DHT22;49;48.530;9.200;2023-06-10T02:07:46;20.00;41.00
418;DHT22;49;48.530;9.200;2023-06-10T02:10:13;20.00;41.10
418;DHT22;49;48.530;9.200;2023-06-10T02:12:41;20.00;40.40
418;DHT22;49;48.530;9.200;2023-06-10T02:15:08;19.70;41.60
418;DHT22;49;48.530;9.200;2023-06-10T02:17:35;19.70;42.00
418;DHT22;49;48.530;9.200;2023-06-10T02:20:03;19.60;42.50
418;DHT22;49;48.530;9.200;2023-06-10T02:22:32;19.60;42.50
418;DHT22;49;48.530;9.200;2023-06-10T02:24:59;19.70;42.30
418;DHT22;49;48.530;9.200;2023-06-10T02:27:26;19.70;41.80
418;DHT22;49;48.530;9.200;2023-06-10T02:29:54;19.80;41.10
418;DHT22;49;48.530;9.200;2023-06-10T02:32:21;19.70;41.70
418;DHT22;49;48.530;9.200;2023-06-10T02:34:48;19.70;41.50
418;DHT22;49;48.530;9.200;2023-06-10T02:37:16;19.70;41.20
418;DHT22;49;48.530;9.200;2023-06-10T02:39:43;19.90;41.10
418;DHT22;49;48.530;9.200;2023-06-10T02:42:11;19.80;41.00
418;DHT22;49;48.530;9.200;2023-06-10T02:44:38;19.80;41.00
418;DHT22;49;48.530;9.200;2023-06-10T02:47:06;19.80;41.20
418;DHT22;49;48.530;9.200;2023-06-10T02:49:33;19.80;40.70
418;DHT22;49;48.530;9.200;2023-06-10T02:52:01;19.80;40.80
418;DHT22;49;48.530;9.200;2023-06-10T02:54:28;19.80;41.10
418;DHT22;49;48.530;9.200;2023-06-10T02:56:55;19.90;40.60
418;DHT22;49;48.530;9.200;2023-06-10T02:59:22;19.30;43.90
418;DHT22;49;48.530;9.200;2023-06-10T03:01:49;19.10;45.80
418;DHT22;49;48.530;9.200;2023-06-10T03:04:17;19.20;45.50
418;DHT22;49;48.530;9.200;2023-06-10T03:06:44;19.30;44.10
418;DHT22;49;48.530;9.200;2023-06-10T03:09:12;19.50;42.90
418;DHT22;49;48.530;9.200;2023-06-10T03:11:40;19.50;42.20
418;DHT22;49;48.530;9.200;2023-06-10T03:14:07;19.30;43.00
418;DHT22;49;48.530;9.200;2023-06-10T03:16:33;19.30;43.50
418;DHT22;49;48.530;9.200;2023-06-10T03:19:00;19.50;42.70
418;DHT22;49;48.530;9.200;2023-06-10T03:21:28;19.40;43.00
418;DHT22;49;48.530;9.200;2023-06-10T03:23:55;19.40;43.60
418;DHT22;49;48.530;9.200;2023-06-10T03:26:22;19.40;42.70
418;DHT22;49;48.530;9.200;2023-06-10T03:28:49;19.40;42.90
418;DHT22;49;48.530;9.200;2023-06-10T03:31:16;19.50;42.70
418;DHT22;49;48.530;9.200;2023-06-10T03:33:43;19.10;45.00
418;DHT22;49;48.530;9.200;2023-06-10T03:36:10;19.00;47.20
418;DHT22;49;48.530;9.200;2023-06-10T03:38:38;19.00;47.10
418;DHT22;49;48.530;9.200;2023-06-10T03:41:05;18.80;46.60
418;DHT22;49;48.530;9.200;2023-06-10T03:43:32;18.80;46.50
418;DHT22;49;48.530;9.200;2023-06-10T03:45:59;19.00;46.10
418;DHT22;49;48.530;9.200;2023-06-10T03:48:26;19.00;45.80
418;DHT22;49;48.530;9.200;2023-06-10T03:50:53;19.20;44.70
418;DHT22;49;48.530;9.200;2023-06-10T03:53:19;19.20;45.20
418;DHT22;49;48.530;9.200;2023-06-10T03:55:48;19.10;45.70
418;DHT22;49;48.530;9.200;2023-06-10T03:58:15;19.10;45.50
418;DHT22;49;48.530;9.200;2023-06-10T04:00:43;19.10;44.60
418;DHT22;49;48.530;9.200;2023-06-10T04:03:11;19.30;45.40
418;DHT22;49;48.530;9.200;2023-06-10T04:05:40;19.00;46.90
418;DHT22;49;48.530;9.200;2023-06-10T04:08:08;19.00;47.00
418;DHT22;49;48.530;9.200;2023-06-10T04:10:34;19.20;46.10
418;DHT22;49;48.530;9.200;2023-06-10T04:13:03;19.50;45.20
418;DHT22;49;48.530;9.200;2023-06-10T04:15:30;19.60;44.20
418;DHT22;49;48.530;9.200;2023-06-10T04:17:59;19.60;44.10
418;DHT22;49;48.530;9.200;2023-06-10T04:20:26;19.60;44.60
418;DHT22;49;48.530;9.200;2023-06-10T04:22:53;19.80;44.10
418;DHT22;49;48.530;9.200;2023-06-10T04:25:20;19.90;43.10
418;DHT22;49;48.530;9.200;2023-06-10T04:27:47;19.90;42.70
418;DHT22;49;48.530;9.200;2023-06-10T04:30:16;20.20;41.60
418;DHT22;49;48.530;9.200;2023-06-10T04:32:43;20.20;42.40
418;DHT22;49;48.530;9.200;2023-06-10T04:35:11;20.40;40.60
418;DHT22;49;48.530;9.200;2023-06-10T04:37:39;20.40;39.60
418;DHT22;49;48.530;9.200;2023-06-10T04:40:07;20.40;40.00
418;DHT22;49;48.530;9.200;2023-06-10T04:42:34;20.50;40.00
418;DHT22;49;48.530;9.200;2023-06-10T04:45:01;20.50;39.90
418;DHT22;49;48.530;9.200;2023-06-10T04:47:30;20.60;39.60
418;DHT22;49;48.530;9.200;2023-06-10T04:49:58;20.70;39.40
418;DHT22;49;48.530;9.200;2023-06-10T04:52:25;20.90;39.60
418;DHT22;49;48.530;9.200;2023-06-10T04:54:52;20.90;38.80
418;DHT22;49;48.530;9.200;2023-06-10T04:57:19;21.00;37.40
418;DHT22;49;48.530;9.200;2023-06-10T04:59:46;21.10;37.80
418;DHT22;49;48.530;9.200;2023-06-10T05:02:13;21.20;37.40
418;DHT22;49;48.530;9.200;2023-06-10T05:04:41;20.90;38.10
418;DHT22;49;48.530;9.200;2023-06-10T05:07:08;21.10;38.20
418;DHT22;49;48.530;9.200;2023-06-10T05:09:35;21.30;37.20
418;DHT22;49;48.530;9.200;2023-06-10T05:12:03;21.50;36.70
418;DHT22;49;48.530;9.200;2023-06-10T05:14:30;21.70;36.10
418;DHT22;49;48.530;9.200;2023-06-10T05:16:57;21.70;36.00
418;DHT22;49;48.530;9.200;2023-06-10T05:19:24;21.70;35.20
418;DHT22;49;48.530;9.200;2023-06-10T05:21:52;21.80;34.70
418;DHT22;49;48.530;9.200;2023-06-10T05:24:19;22.00;35.50
418;DHT22;49;48.530;9.200;2023-06-10T05:26:46;22.20;35.20
418;DHT22;49;48.530;9.200;2023-06-10T05:29:14;22.40;34.80
418;DHT22;49;48.530;9.200;2023-06-10T05:31:41;22.50;34.40
418;DHT22;49;48.530;9.200;2023-06-10T05:34:08;22.70;34.30
418;DHT22;49;48.530;9.200;2023-06-10T05:36:35;22.70;34.50
418;DHT22;49;48.530;9.200;2023-06-10T05:39:04;22.60;35.00
418;DHT22;49;48.530;9.200;2023-06-10T05:41:30;23.60;34.40
418;DHT22;49;48.530;9.200;2023-06-10T05:43:57;24.80;34.10
418;DHT22;49;48.530;9.200;2023-06-10T05:46:24;26.50;31.30
418;DHT22;49;48.530;9.200;2023-06-10T05:48:51;28.00;25.10
418;DHT22;49;48.530;9.200;2023-06-10T05:51:18;29.00;19.60
418;DHT22;49;48.530;9.200;2023-06-10T05:53:45;29.80;18.90
418;DHT22;49;48.530;9.200;2023-06-10T05:56:13;30.70;17.70
418;DHT22;49;48.530;9.200;2023-06-10T05:58:40;32.00;15.20
418;DHT22;49;48.530;9.200;2023-06-10T06:01:07;33.20;12.60
418;DHT22;49;48.530;9.200;2023-06-10T06:03:34;33.40;12.10
418;DHT22;49;48.530;9.200;2023-06-10T06:06:00;34.20;11.10
418;DHT22;49;48.530;9.200;2023-06-10T06:08:27;34.30;10.00
418;DHT22;49;48.530;9.200;2023-06-10T06:10:54;34.10;10.20
418;DHT22;49;48.530;9.200;2023-06-10T06:13:23;34.60;8.70
418;DHT22;49;48.530;9.200;2023-06-10T06:15:50;35.10;9.20
418;DHT22;49;48.530;9.200;2023-06-10T06:18:17;35.50;8.20
418;DHT22;49;48.530;9.200;2023-06-10T06:20:44;35.80;8.30
418;DHT22;49;48.530;9.200;2023-06-10T06:23:10;35.30;8.10
418;DHT22;49;48.530;9.200;2023-06-10T06:25:37;36.20;7.30
418;DHT22;49;48.530;9.200;2023-06-10T06:28:05;36.90;6.40
418;DHT22;49;48.530;9.200;2023-06-10T06:30:34;36.80;6.20
418;DHT22;49;48.530;9.200;2023-06-10T06:33:00;37.00;5.70
418;DHT22;49;48.530;9.200;2023-06-10T06:35:29;36.50;5.90
418;DHT22;49;48.530;9.200;2023-06-10T06:37:56;37.00;5.50
418;DHT22;49;48.530;9.200;2023-06-10T06:40:24;37.90;5.10
418;DHT22;49;48.530;9.200;2023-06-10T06:42:51;38.10;4.10
418;DHT22;49;48.530;9.200;2023-06-10T06:45:18;38.20;3.90
418;DHT22;49;48.530;9.200;2023-06-10T06:47:46;38.20;4.00
418;DHT22;49;48.530;9.200;2023-06-10T06:50:13;37.60;5.10
418;DHT22;49;48.530;9.200;2023-06-10T06:52:40;37.40;4.60
418;DHT22;49;48.530;9.200;2023-06-10T06:55:07;36.40;6.10
418;DHT22;49;48.530;9.200;2023-06-10T06:57:34;37.10;5.00
418;DHT22;49;48.530;9.200;2023-06-10T07:00:02;37.60;5.70
418;DHT22;49;48.530;9.200;2023-06-10T07:02:30;37.80;4.90
418;DHT22;49;48.530;9.200;2023-06-10T07:05:00;38.40;4.20
418;DHT22;49;48.530;9.200;2023-06-10T07:07:26;38.80;3.90
418;DHT22;49;48.530;9.200;2023-06-10T07:09:53;39.20;3.30
418;DHT22;49;48.530;9.200;2023-06-10T07:12:20;39.60;2.80
418;DHT22;49;48.530;9.200;2023-06-10T07:14:49;39.80;3.30
418;DHT22;49;48.530;9.200;2023-06-10T07:17:16;39.00;3.40
418;DHT22;49;48.530;9.200;2023-06-10T07:19:43;39.20;3.20
418;DHT22;49;48.530;9.200;2023-06-10T07:22:11;39.70;2.80
418;DHT22;49;48.530;9.200;2023-06-10T07:24:38;39.90;2.70
418;DHT22;49;48.530;9.200;2023-06-10T07:27:06;39.90;2.10
418;DHT22;49;48.530;9.200;2023-06-10T07:29:32;39.50;2.50
418;DHT22;49;48.530;9.200;2023-06-10T07:32:02;38.30;3.70
418;DHT22;49;48.530;9.200;2023-06-10T07:34:29;38.30;3.40
418;DHT22;49;48.530;9.200;2023-06-10T07:36:55;38.70;3.60
418;DHT22;49;48.530;9.200;2023-06-10T07:39:24;38.90;3.40
418;DHT22;49;48.530;9.200;2023-06-10T07:41:50;38.80;2.80
418;DHT22;49;48.530;9.200;2023-06-10T07:44:19;38.60;3.00
418;DHT22;49;48.530;9.200;2023-06-10T07:46:46;38.00;3.60
418;DHT22;49;48.530;9.200;2023-06-10T07:49:13;38.50;3.70
418;DHT22;49;48.530;9.200;2023-06-10T07:51:40;38.80;3.20
418;DHT22;49;48.530;9.200;2023-06-10T07:54:07;39.00;3.10
418;DHT22;49;48.530;9.200;2023-06-10T07:56:36;38.70;3.40
418;DHT22;49;48.530;9.200;2023-06-10T07:59:03;38.50;3.50
418;DHT22;49;48.530;9.200;2023-06-10T08:01:30;38.70;3.30
418;DHT22;49;48.530;9.200;2023-06-10T08:03:58;39.00;3.10
418;DHT22;49;48.530;9.200;2023-06-10T08:06:25;39.30;2.90
418;DHT22;49;48.530;9.200;2023-06-10T08:08:52;38.10;4.50
418;DHT22;49;48.530;9.200;2023-06-10T08:11:19;37.40;4.70
418;DHT22;49;48.530;9.200;2023-06-10T08:13:47;37.50;4.90
418;DHT22;49;48.530;9.200;2023-06-10T08:16:14;37.90;4.70
418;DHT22;49;48.530;9.200;2023-06-10T08:18:41;37.30;4.90
418;DHT22;49;48.530;9.200;2023-06-10T08:21:09;35.60;6.40
418;DHT22;49;48.530;9.200;2023-06-10T08:23:35;35.10;8.00
418;DHT22;49;48.530;9.200;2023-06-10T08:26:03;35.00;8.00
418;DHT22;49;48.530;9.200;2023-06-10T08:28:30;35.70;7.20
418;DHT22;49;48.530;9.200;2023-06-10T08:30:58;35.90;7.10
418;DHT22;49;48.530;9.200;2023-06-10T08:33:25;35.70;6.70
418;DHT22;49;48.530;9.200;2023-06-10T08:35:52;35.50;7.80
418;DHT22;49;48.530;9.200;2023-06-10T08:38:19;36.50;6.40
418;DHT22;49;48.530;9.200;2023-06-10T08:40:46;36.60;5.80
418;DHT22;49;48.530;9.200;2023-06-10T08:43:19;36.70;5.90
418;DHT22;49;48.530;9.200;2023-06-10T08:45:49;36.90;5.30
418;DHT22;49;48.530;9.200;2023-06-10T08:48:19;35.90;7.00
418;DHT22;49;48.530;9.200;2023-06-10T08:50:47;35.90;6.60
418;DHT22;49;48.530;9.200;2023-06-10T08:53:18;35.60;7.10
418;DHT22;49;48.530;9.200;2023-06-10T08:55:50;34.90;7.90
418;DHT22;49;48.530;9.200;2023-06-10T08:58:18;34.10;9.00
418;DHT22;49;48.530;9.200;2023-06-10T09:00:45;34.20;9.10
418;DHT22;49;48.530;9.200;2023-06-10T09:03:13;33.70;9.20
418;DHT22;49;48.530;9.200;2023-06-10T09:05:42;33.20;9.80
418;DHT22;49;48.530;9.200;2023-06-10T09:08:09;33.40;9.60
418;DHT22;49;48.530;9.200;2023-06-10T09:10:37;33.10;10.20
418;DHT22;49;48.530;9.200;2023-06-10T09:13:07;32.80;10.50
418;DHT22;49;48.530;9.200;2023-06-10T09:15:34;33.20;10.30
418;DHT22;49;48.530;9.200;2023-06-10T09:18:01;33.10;9.90
418;DHT22;49;48.530;9.200;2023-06-10T09:20:32;32.10;11.00
418;DHT22;49;48.530;9.200;2023-06-10T09:23:01;31.20;12.60
418;DHT22;49;48.530;9.200;2023-06-10T09:25:36;31.40;12.50
418;DHT22;49;48.530;9.200;2023-06-10T09:28:04;31.10;12.70
418;DHT22;49;48.530;9.200;2023-06-10T09:30:33;29.50;14.90
418;DHT22;49;48.530;9.200;2023-06-10T09:33:01;28.80;15.60
418;DHT22;49;48.530;9.200;2023-06-10T09:35:30;28.50;16.80
418;DHT22;49;48.530;9.200;2023-06-10T09:37:58;29.00;15.80
418;DHT22;49;48.530;9.200;2023-06-10T09:40:27;29.70;15.20
418;DHT22;49;48.530;9.200;2023-06-10T09:42:55;30.00;14.80
418;DHT22;49;48.530;9.200;2023-06-10T09:45:23;30.40;14.20
418;DHT22;49;48.530;9.200;2023-06-10T09:47:54;30.40;13.60
418;DHT22;49;48.530;9.200;2023-06-10T09:50:21;31.20;12.10
418;DHT22;49;48.530;9.200;2023-06-10T09:52:48;32.10;11.00
418;DHT22;49;48.530;9.200;2023-06-10T09:55:15;32.10;10.30
418;DHT22;49;48.530;9.200;2023-06-10T09:57:44;31.90;10.40
418;DHT22;49;48.530;9.200;2023-06-10T10:00:16;31.60;10.80
418;DHT22;49;48.530;9.200;2023-06-10T10:02:47;31.40;10.90
418;DHT22;49;48.530;9.200;2023-06-10T10:05:15;31.30;10.70
418;DHT22;49;48.530;9.200;2023-06-10T10:07:42;31.10;11.20
418;DHT22;49;48.530;9.200;2023-06-10T10:10:10;31.40;11.10
418;DHT22;49;48.530;9.200;2023-06-10T10:12:39;31.40;10.70
418;DHT22;49;48.530;9.200;2023-06-10T10:15:09;31.30;10.40
418;DHT22;49;48.530;9.200;2023-06-10T10:17:40;31.50;10.50
418;DHT22;49;48.530;9.200;2023-06-10T10:20:13;30.40;11.90
418;DHT22;49;48.530;9.200;2023-06-10T10:22:43;30.10;11.80
418;DHT22;49;48.530;9.200;2023-06-10T10:25:13;30.40;11.90
418;DHT22;49;48.530;9.200;2023-06-10T10:27:45;31.00;12.00
418;DHT22;49;48.530;9.200;2023-06-10T10:30:17;30.40;11.90
418;DHT22;49;48.530;9.200;2023-06-10T10:32:56;29.80;13.20
418;DHT22;49;48.530;9.200;2023-06-10T10:35:24;30.30;12.50
418;DHT22;49;48.530;9.200;2023-06-10T10:37:53;31.00;11.80
418;DHT22;49;48.530;9.200;2023-06-10T10:40:21;31.50;11.20
418;DHT22;49;48.530;9.200;2023-06-10T10:42:49;30.90;11.10
418;DHT22;49;48.530;9.200;2023-06-10T10:45:18;29.80;12.60
418;DHT22;49;48.530;9.200;2023-06-10T10:47:46;30.00;13.40
418;DHT22;49;48.530;9.200;2023-06-10T10:50:14;30.70;12.10
418;DHT22;49;48.530;9.200;2023-06-10T10:52:53;30.60;11.20
418;DHT22;49;48.530;9.200;2023-06-10T10:55:22;30.50;11.50
418;DHT22;49;48.530;9.200;2023-06-10T10:57:56;31.30;10.40
418;DHT22;49;48.530;9.200;2023-06-10T11:00:33;31.90;9.90
418;DHT22;49;48.530;9.200;2023-06-10T11:03:05;31.80;10.70
418;DHT22;49;48.530;9.200;2023-06-10T11:05:39;31.90;10.20
418;DHT22;49;48.530;9.200;2023-06-10T11:08:08;30.80;11.10
418;DHT22;49;48.530;9.200;2023-06-10T11:10:36;30.20;12.70
418;DHT22;49;48.530;9.200;2023-06-10T11:13:08;30.80;12.30
418;DHT22;49;48.530;9.200;2023-06-10T11:15:43;30.70;12.10
418;DHT22;49;48.530;9.200;2023-06-10T11:18:23;30.80;11.70
418;DHT22;49;48.530;9.200;2023-06-10T11:20:55;30.30;12.30
418;DHT22;49;48.530;9.200;2023-06-10T11:23:33;29.80;13.50
418;DHT22;49;48.530;9.200;2023-06-10T11:26:17;30.40;12.70
418;DHT22;49;48.530;9.200;2023-06-10T11:29:06;31.50;11.30
418;DHT22;49;48.530;9.200;2023-06-10T11:31:40;31.40;10.60
418;DHT22;49;48.530;9.200;2023-06-10T11:34:08;31.10;10.90
418;DHT22;49;48.530;9.200;2023-06-10T11:36:39;31.00;11.30
418;DHT22;49;48.530;9.200;2023-06-10T11:39:09;30.80;11.10
418;DHT22;49;48.530;9.200;2023-06-10T11:41:38;31.00;11.00
418;DHT22;49;48.530;9.200;2023-06-10T11:44:08;30.90;11.50
418;DHT22;49;48.530;9.200;2023-06-10T11:46:35;31.00;11.80
418;DHT22;49;48.530;9.200;2023-06-10T11:49:05;30.80;11.50
418;DHT22;49;48.530;9.200;2023-06-10T11:51:34;30.90;11.40
418;DHT22;49;48.530;9.200;2023-06-10T11:54:02;31.30;10.50
418;DHT22;49;48.530;9.200;2023-06-10T11:56:30;30.50;10.40
418;DHT22;49;48.530;9.200;2023-06-10T11:58:59;30.30;11.10
418;DHT22;49;48.530;9.200;2023-06-10T12:01:30;30.60;11.00
418;DHT22;49;48.530;9.200;2023-06-10T12:03:59;31.50;10.00
418;DHT22;49;48.530;9.200;2023-06-10T12:06:37;31.20;10.20
418;DHT22;49;48.530;9.200;2023-06-10T12:09:05;30.80;10.90
418;DHT22;49;48.530;9.200;2023-06-10T12:11:32;31.00;11.10
418;DHT22;49;48.530;9.200;2023-06-10T12:14:00;31.40;10.30
418;DHT22;49;48.530;9.200;2023-06-10T12:16:29;31.10;10.30
418;DHT22;49;48.530;9.200;2023-06-10T12:19:02;30.90;10.30
418;DHT22;49;48.530;9.200;2023-06-10T12:21:32;31.00;9.70
418;DHT22;49;48.530;9.200;2023-06-10T12:24:07;31.00;9.80
418;DHT22;49;48.530;9.200;2023-06-10T12:26:42;30.80;10.30
418;DHT22;49;48.530;9.200;2023-06-10T12:29:17;31.00;9.80
418;DHT22;49;48.530;9.200;2023-06-10T12:31:56;31.30;11.00
418;DHT22;49;48.530;9.200;2023-06-10T12:34:35;31.20;10.20
418;DHT22;49;48.530;9.200;2023-06-10T12:37:12;31.10;10.20
418;DHT22;49;48.530;9.200;2023-06-10T12:39:41;30.90;10.60
418;DHT22;49;48.530;9.200;2023-06-10T12:42:09;31.00;10.40
418;DHT22;49;48.530;9.200;2023-06-10T12:44:40;30.60;11.20
418;DHT22;49;48.530;9.200;2023-06-10T12:47:08;29.70;12.50
418;DHT22;49;48.530;9.200;2023-06-10T12:49:36;29.60;12.50
418;DHT22;49;48.530;9.200;2023-06-10T12:52:06;30.30;11.70
418;DHT22;49;48.530;9.200;2023-06-10T12:54:34;31.00;10.30
418;DHT22;49;48.530;9.200;2023-06-10T12:57:01;31.40;10.40
418;DHT22;49;48.530;9.200;2023-06-10T12:59:28;32.00;9.10
418;DHT22;49;48.530;9.200;2023-06-10T13:01:57;32.60;8.50
418;DHT22;49;48.530;9.200;2023-06-10T13:04:24;32.50;8.90
418;DHT22;49;48.530;9.200;2023-06-10T13:06:52;32.00;9.20
418;DHT22;49;48.530;9.200;2023-06-10T13:09:21;31.70;9.60
418;DHT22;49;48.530;9.200;2023-06-10T13:11:49;32.10;9.40
418;DHT22;49;48.530;9.200;2023-06-10T13:14:16;32.70;8.00
418;DHT22;49;48.530;9.200;2023-06-10T13:16:43;31.80;9.00
418;DHT22;49;48.530;9.200;2023-06-10T13:19:10;31.30;9.20
418;DHT22;49;48.530;9.200;2023-06-10T13:21:37;31.40;9.30
418;DHT22;49;48.530;9.200;2023-06-10T13:24:05;31.20;9.50
418;DHT22;49;48.530;9.200;2023-06-10T13:26:34;31.10;9.00
418;DHT22;49;48.530;9.200;2023-06-10T13:29:01;31.30;9.00
418;DHT22;49;48.530;9.200;2023-06-10T13:31:28;31.10;9.70
418;DHT22;49;48.530;9.200;2023-06-10T13:33:55;30.60;10.20
418;DHT22;49;48.530;9.200;2023-06-10T13:36:23;30.90;10.70
418;DHT22;49;48.530;9.200;2023-06-10T13:38:50;31.50;9.20
418;DHT22;49;48.530;9.200;2023-06-10T13:41:18;32.00;8.40
418;DHT22;49;48.530;9.200;2023-06-10T13:43:47;32.40;8.10
418;DHT22;49;48.530;9.200;2023-06-10T13:46:14;32.50;8.20
418;DHT22;49;48.530;9.200;2023-06-10T13:48:41;31.70;9.20
418;DHT22;49;48.530;9.200;2023-06-10T13:51:08;31.10;9.90
418;DHT22;49;48.530;9.200;2023-06-10T13:53:37;31.00;10.00
418;DHT22;49;48.530;9.200;2023-06-10T13:56:04;30.90;10.10
418;DHT22;49;48.530;9.200;2023-06-10T13:58:31;31.00;10.60
418;DHT22;49;48.530;9.200;2023-06-10T14:01:06;30.80;10.30
418;DHT22;49;48.530;9.200;2023-06-10T14:03:35;31.10;10.10
418;DHT22;49;48.530;9.200;2023-06-10T14:06:08;30.90;9.30
418;DHT22;49;48.530;9.200;2023-06-10T14:08:39;30.90;9.60
418;DHT22;49;48.530;9.200;2023-06-10T14:11:09;31.00;8.60
418;DHT22;49;48.530;9.200;2023-06-10T14:13:36;31.30;9.20
418;DHT22;49;48.530;9.200;2023-06-10T14:16:06;31.30;8.90
418;DHT22;49;48.530;9.200;2023-06-10T14:18:34;31.10;9.10
418;DHT22;49;48.530;9.200;2023-06-10T14:21:07;30.70;8.60
418;DHT22;49;48.530;9.200;2023-06-10T14:23:39;29.80;9.90
418;DHT22;49;48.530;9.200;2023-06-10T14:26:12;29.80;10.40
418;DHT22;49;48.530;9.200;2023-06-10T14:28:40;30.20;9.80
418;DHT22;49;48.530;9.200;2023-06-10T14:31:09;30.50;9.50
418;DHT22;49;48.530;9.200;2023-06-10T14:33:36;30.60;9.90
418;DHT22;49;48.530;9.200;2023-06-10T14:36:03;31.00;9.30
418;DHT22;49;48.530;9.200;2023-06-10T14:38:30;31.40;8.60
418;DHT22;49;48.530;9.200;2023-06-10T14:40:57;31.80;8.40
418;DHT22;49;48.530;9.200;2023-06-10T14:43:25;31.00;9.00
418;DHT22;49;48.530;9.200;2023-06-10T14:45:52;30.50;9.70
418;DHT22;49;48.530;9.200;2023-06-10T14:48:22;29.90;10.30
418;DHT22;49;48.530;9.200;2023-06-10T14:50:49;29.70;11.40
418;DHT22;49;48.530;9.200;2023-06-10T14:53:20;29.70;10.70
418;DHT22;49;48.530;9.200;2023-06-10T14:55:47;29.70;10.80
418;DHT22;49;48.530;9.200;2023-06-10T14:58:14;30.00;10.80
418;DHT22;49;48.530;9.200;2023-06-10T15:00:42;30.30;10.30
418;DHT22;49;48.530;9.200;2023-06-10T15:03:09;30.60;10.30
418;DHT22;49;48.530;9.200;2023-06-10T15:05:37;30.80;10.20
418;DHT22;49;48.530;9.200;2023-06-10T15:08:04;31.20;10.50
418;DHT22;49;48.530;9.200;2023-06-10T15:10:31;31.70;10.20
418;DHT22;49;48.530;9.200;2023-06-10T15:12:58;32.00;10.20
418;DHT22;49;48.530;9.200;2023-06-10T15:15:26;32.10;9.90
418;DHT22;49;48.530;9.200;2023-06-10T15:17:53;31.70;10.50
418;DHT22;49;48.530;9.200;2023-06-10T15:20:21;30.60;10.90
418;DHT22;49;48.530;9.200;2023-06-10T15:22:50;30.20;12.30
418;DHT22;49;48.530;9.200;2023-06-10T15:25:20;29.90;12.60
418;DHT22;49;48.530;9.200;2023-06-10T15:27:50;30.00;12.60
418;DHT22;49;48.530;9.200;2023-06-10T15:30:18;30.30;12.50
418;DHT22;49;48.530;9.200;2023-06-10T15:32:53;30.60;12.40
418;DHT22;49;48.530;9.200;2023-06-10T15:35:25;30.80;12.90
418;DHT22;49;48.530;9.200;2023-06-10T15:37:58;30.90;12.50
418;DHT22;49;48.530;9.200;2023-06-10T15:40:34;31.00;13.00
418;DHT22;49;48.530;9.200;2023-06-10T15:43:04;31.20;12.90
418;DHT22;49;48.530;9.200;2023-06-10T15:45:33;30.70;12.20
418;DHT22;49;48.530;9.200;2023-06-10T15:48:01;30.10;14.00
418;DHT22;49;48.530;9.200;2023-06-10T15:50:37;30.30;13.00
418;DHT22;49;48.530;9.200;2023-06-10T15:53:15;30.40;12.70
418;DHT22;49;48.530;9.200;2023-06-10T15:55:43;30.20;13.30
418;DHT22;49;48.530;9.200;2023-06-10T15:58:16;30.60;13.00
418;DHT22;49;48.530;9.200;2023-06-10T16:00:47;31.00;12.30
418;DHT22;49;48.530;9.200;2023-06-10T16:03:17;31.10;11.80
418;DHT22;49;48.530;9.200;2023-06-10T16:05:47;30.70;12.10
418;DHT22;49;48.530;9.200;2023-06-10T16:08:16;30.40;12.60
418;DHT22;49;48.530;9.200;2023-06-10T16:10:43;30.60;12.50
418;DHT22;49;48.530;9.200;2023-06-10T16:13:10;30.60;12.40
418;DHT22;49;48.530;9.200;2023-06-10T16:15:37;30.70;12.40
418;DHT22;49;48.530;9.200;2023-06-10T16:18:05;30.90;12.20
418;DHT22;49;48.530;9.200;2023-06-10T16:20:35;30.60;12.30
418;DHT22;49;48.530;9.200;2023-06-10T16:23:03;30.50;13.00
418;DHT22;49;48.530;9.200;2023-06-10T16:25:36;30.20;13.20
418;DHT22;49;48.530;9.200;2023-06-10T16:28:04;30.20;13.80
418;DHT22;49;48.530;9.200;2023-06-10T16:30:34;30.20;13.60
418;DHT22;49;48.530;9.200;2023-06-10T16:33:01;30.10;13.60
418;DHT22;49;48.530;9.200;2023-06-10T16:35:40;30.30;13.40
418;DHT22;49;48.530;9.200;2023-06-10T16:38:11;30.40;13.20
418;DHT22;49;48.530;9.200;2023-06-10T16:40:43;30.50;13.00
418;DHT22;49;48.530;9.200;2023-06-10T16:43:11;30.80;12.70
418;DHT22;49;48.530;9.200;2023-06-10T16:45:38;30.70;12.90
418;DHT22;49;48.530;9.200;2023-06-10T16:48:06;30.70;13.10
418;DHT22;49;48.530;9.200;2023-06-10T16:50:33;30.40;11.60
418;DHT22;49;48.530;9.200;2023-06-10T16:53:00;30.10;12.40
418;DHT22;49;48.530;9.200;2023-06-10T16:55:31;30.00;11.80
418;DHT22;49;48.530;9.200;2023-06-10T16:58:01;30.00;11.80
418;DHT22;49;48.530;9.200;2023-06-10T17:00:28;29.80;12.10
418;DHT22;49;48.530;9.200;2023-06-10T17:02:56;29.90;12.40
418;DHT22;49;48.530;9.200;2023-06-10T17:05:23;30.10;12.10